Weather at Oombergen Airfield [CLOSED]

Public forecast

Using degrees Celsius for public forecast. Weather courtesy of forecast.io.

Closest aviation weather report (METAR) to Oombergen Airfield

Closest report is Chièvres Air Base, 20.0 nm (37.1 km) S. Retrieved 2021/09/20 04:25 UTC (23 minutes ago):

EBCV 200425Z AUTO VRB01KT 1800 BR BKN001/// 11/11 Q1017 RED

Closest aviation forecast (TAF) to Oombergen Airfield

Forecast is more than 12 hours old.

Closest forecast is Chièvres Air Base, 20.0 nm (37.1 km) S. Retrieved 2021/09/05 19:15 UTC (14 days ago):

TAF TAF EBCV 051609Z 0519/0607 06004KT 9999 FEW250 BECMG 0601/0603 VRB02KT PROB30 TEMPO 0603/0607 4000 BR BY EBWM